createdAt,value
2023-04-20T00:00:17.895Z,1.77
2023-04-20T00:03:04.321Z,0.80
2023-04-20T00:05:50.149Z,1.38
2023-04-20T00:08:36.185Z,1.95
2023-04-20T00:11:21.881Z,0.57
2023-04-20T00:14:08.582Z,1.73
2023-04-20T00:16:54.312Z,1.27
2023-04-20T00:19:39.691Z,1.08
2023-04-20T00:22:26.356Z,1.23
2023-04-20T00:25:12.078Z,1.95
2023-04-20T00:27:58.291Z,2.55
2023-04-20T00:30:43.807Z,0.68
2023-04-20T00:33:29.636Z,3.15
2023-04-20T00:36:15.497Z,0.40
2023-04-20T00:39:01.581Z,1.40
2023-04-20T00:41:47.571Z,1.38
2023-04-20T00:44:33.543Z,2.65
2023-04-20T00:47:19.641Z,1.92
2023-04-20T00:50:06.962Z,1.75
2023-04-20T00:52:52.664Z,0.75
2023-04-20T00:55:39.458Z,1.58
2023-04-20T00:58:25.864Z,0.82
2023-04-20T01:01:12.499Z,0.65
2023-04-20T01:03:58.509Z,2.38
2023-04-20T01:06:44.118Z,1.42
2023-04-20T01:09:30.585Z,1.90
2023-04-20T01:12:16.169Z,0.85
2023-04-20T01:15:03.987Z,0.55
2023-04-20T01:17:50.081Z,0.40
2023-04-20T01:20:35.776Z,0.63
2023-04-20T01:23:21.485Z,2.58
2023-04-20T01:26:08.720Z,1.63
2023-04-20T01:28:54.537Z,0.10
2023-04-20T01:31:40.210Z,1.42
2023-04-20T01:34:26.034Z,1.10
2023-04-20T01:37:12.476Z,0.10
2023-04-20T01:39:58.485Z,0.20
2023-04-20T01:42:44.280Z,3.50
2023-04-20T01:45:29.814Z,0.20
2023-04-20T01:48:16.373Z,1.45
2023-04-20T01:51:02.182Z,2.15
2023-04-20T01:53:48.014Z,2.47
2023-04-20T01:56:33.484Z,2.58
2023-04-20T01:59:19.567Z,2.25
2023-04-20T02:02:05.162Z,1.10
2023-04-20T02:04:53.391Z,1.17
2023-04-20T02:07:39.251Z,1.45
2023-04-20T02:10:25.804Z,1.92
2023-04-20T02:13:11.781Z,0.95
2023-04-20T02:15:57.786Z,1.92
2023-04-20T02:18:45.543Z,2.55
2023-04-20T02:21:31.623Z,0.43
2023-04-20T02:24:17.823Z,1.58
2023-04-20T02:27:03.585Z,1.50
2023-04-20T02:29:50.578Z,1.02
2023-04-20T02:32:36.310Z,2.67
2023-04-20T02:35:22.012Z,2.92
2023-04-20T02:38:07.780Z,3.17
2023-04-20T02:40:53.533Z,4.22
2023-04-20T02:43:38.917Z,5.05
2023-04-20T02:46:25.452Z,3.05
2023-04-20T02:49:11.099Z,3.00
2023-04-20T02:52:01.203Z,2.95
2023-04-20T02:54:47.316Z,3.63
2023-04-20T02:57:33.220Z,3.55
2023-04-20T03:00:19.831Z,4.57
2023-04-20T03:03:21.775Z,2.88
2023-04-20T03:06:08.105Z,0.88
2023-04-20T03:08:54.049Z,0.88
2023-04-20T03:11:58.430Z,0.30
2023-04-20T03:15:15.737Z,1.15
2023-04-20T03:18:14.912Z,3.50
2023-04-20T03:21:00.653Z,1.52
2023-04-20T03:23:49.256Z,1.42
2023-04-20T03:26:35.296Z,0.20
2023-04-20T03:29:34.073Z,2.67
2023-04-20T03:32:20.200Z,3.10
2023-04-20T03:35:07.672Z,4.60
2023-04-20T03:37:53.243Z,3.15
2023-04-20T03:40:39.267Z,3.85
2023-04-20T03:43:25.161Z,3.25
2023-04-20T03:46:10.954Z,3.90
2023-04-20T03:48:56.457Z,3.10
2023-04-20T03:51:42.509Z,3.85
2023-04-20T03:54:28.148Z,2.83
2023-04-20T03:57:13.903Z,4.38
2023-04-20T03:59:59.977Z,4.22
2023-04-20T04:02:52.493Z,3.15
2023-04-20T04:05:43.675Z,4.95
2023-04-20T04:08:29.537Z,5.50
2023-04-20T04:11:15.949Z,3.88
2023-04-20T04:14:05.045Z,4.50
2023-04-20T04:16:51.152Z,3.83
2023-04-20T04:19:37.661Z,1.40
2023-04-20T04:22:23.125Z,4.03
2023-04-20T04:25:29.913Z,2.05
2023-04-20T04:28:17.042Z,0.30
2023-04-20T04:31:13.352Z,1.77
2023-04-20T04:33:59.528Z,2.85
2023-04-20T04:36:55.001Z,2.40
2023-04-20T04:39:50.166Z,1.00
2023-04-20T04:42:41.882Z,3.28
2023-04-20T04:45:28.618Z,1.00
2023-04-20T04:48:14.525Z,2.05
2023-04-20T04:51:00.346Z,2.95
2023-04-20T04:53:49.505Z,3.53
2023-04-20T04:56:35.767Z,0.63
2023-04-20T04:59:21.975Z,2.00
2023-04-20T05:02:07.975Z,1.45
2023-04-20T05:04:53.918Z,6.07
2023-04-20T05:07:40.340Z,4.65
2023-04-20T05:10:26.144Z,4.28
2023-04-20T05:13:11.563Z,3.30
2023-04-20T05:15:57.480Z,3.92
2023-04-20T05:18:42.896Z,4.07
2023-04-20T05:21:28.461Z,2.95
2023-04-20T05:24:14.465Z,3.90
2023-04-20T05:27:00.692Z,0.98
2023-04-20T05:29:46.058Z,1.95
2023-04-20T05:32:31.481Z,1.48
2023-04-20T05:35:17.614Z,4.57
2023-04-20T05:38:06.312Z,1.67
2023-04-20T05:40:52.230Z,3.60
2023-04-20T05:43:37.626Z,1.92
2023-04-20T05:46:23.887Z,4.45
2023-04-20T05:49:09.611Z,4.78
2023-04-20T05:51:55.419Z,1.88
2023-04-20T05:54:41.225Z,2.67
2023-04-20T05:57:27.238Z,3.00
2023-04-20T06:00:15.816Z,3.78
2023-04-20T06:03:02.130Z,3.90
2023-04-20T06:05:48.621Z,1.42
2023-04-20T06:08:34.774Z,2.97
2023-04-20T06:11:20.645Z,3.40
2023-04-20T06:17:08.517Z,1.95
2023-04-20T06:19:54.549Z,2.40
2023-04-20T06:22:47.273Z,1.90
2023-04-20T06:25:33.182Z,1.50
2023-04-20T06:28:18.797Z,1.45
2023-04-20T06:31:04.983Z,2.10
2023-04-20T06:33:50.631Z,1.92
2023-04-20T06:36:36.596Z,2.75
2023-04-20T06:39:22.333Z,1.67
2023-04-20T06:42:08.609Z,3.08
2023-04-20T06:44:56.244Z,3.55
2023-04-20T06:47:42.144Z,2.65
2023-04-20T06:50:28.028Z,2.45
2023-04-20T06:53:13.750Z,6.13
2023-04-20T06:55:59.443Z,4.65
2023-04-20T06:58:45.053Z,4.28
2023-04-20T07:01:31.331Z,1.40
2023-04-20T07:04:16.853Z,5.95
2023-04-20T07:07:03.246Z,4.38
2023-04-20T07:09:48.700Z,3.13
2023-04-20T07:12:36.582Z,3.25
2023-04-20T07:15:23.136Z,3.30
2023-04-20T07:18:09.000Z,3.08
2023-04-20T07:20:54.504Z,3.53
2023-04-20T07:23:41.152Z,5.75
2023-04-20T07:26:27.255Z,5.57
2023-04-20T07:29:12.740Z,4.43
2023-04-20T07:31:58.201Z,3.95
2023-04-20T07:34:44.326Z,2.20
2023-04-20T07:37:31.590Z,3.20
2023-04-20T07:40:17.756Z,3.90
2023-04-20T07:43:04.120Z,6.18
2023-04-20T07:45:50.033Z,4.70
2023-04-20T07:48:35.761Z,5.20
2023-04-20T07:51:21.772Z,2.22
2023-04-20T07:54:08.395Z,5.20
2023-04-20T07:56:54.937Z,2.20
2023-04-20T07:59:40.887Z,3.28
2023-04-20T08:02:26.809Z,4.45
2023-04-20T08:05:13.616Z,2.80
2023-04-20T08:07:59.930Z,3.10
2023-04-20T08:10:45.723Z,4.68
2023-04-20T08:13:32.436Z,6.60
2023-04-20T08:16:18.190Z,7.55
2023-04-20T08:19:10.270Z,4.33
2023-04-20T08:21:56.382Z,4.68
2023-04-20T08:24:42.242Z,2.88
2023-04-20T08:27:29.843Z,3.97
2023-04-20T08:30:15.859Z,4.75
2023-04-20T08:33:01.770Z,4.85
2023-04-20T08:35:47.587Z,3.45
2023-04-20T08:38:34.374Z,5.68
2023-04-20T08:41:38.863Z,2.85
2023-04-20T08:44:25.097Z,4.20
2023-04-20T08:47:12.038Z,8.07
2023-04-20T08:50:00.289Z,5.38
2023-04-20T08:52:46.283Z,4.00
2023-04-20T08:55:33.197Z,2.65
2023-04-20T08:58:18.892Z,4.22
2023-04-20T09:01:04.714Z,3.35
2023-04-20T09:03:50.629Z,6.28
2023-04-20T09:06:36.615Z,8.15
2023-04-20T09:09:24.010Z,7.80
2023-04-20T09:12:10.751Z,3.42
2023-04-20T09:14:57.049Z,7.68
2023-04-20T09:17:43.330Z,11.15
2023-04-20T09:20:33.487Z,9.98
2023-04-20T09:23:24.345Z,5.05
2023-04-20T09:26:18.622Z,8.20
2023-04-20T09:29:04.976Z,10.32
2023-04-20T09:31:52.102Z,7.00
2023-04-20T09:34:45.135Z,7.22
2023-04-20T09:37:30.881Z,6.50
2023-04-20T09:40:17.988Z,6.95
2023-04-20T09:43:09.460Z,8.85
2023-04-20T09:45:58.778Z,7.05
2023-04-20T09:48:44.337Z,7.97
2023-04-20T09:51:32.256Z,7.07
2023-04-20T09:54:18.736Z,5.47
2023-04-20T09:57:06.007Z,10.55
2023-04-20T09:59:53.377Z,11.18
2023-04-20T10:02:40.576Z,9.50
2023-04-20T10:05:44.619Z,10.20
2023-04-20T10:08:41.876Z,10.75
2023-04-20T10:11:41.201Z,6.50
2023-04-20T10:14:35.997Z,12.20
2023-04-20T10:17:31.111Z,5.55
2023-04-20T10:20:25.470Z,10.07
2023-04-20T10:23:11.990Z,6.10
2023-04-20T10:25:59.263Z,8.10
2023-04-20T10:28:45.223Z,7.72
2023-04-20T10:31:38.349Z,8.90
2023-04-20T10:34:35.246Z,5.60
2023-04-20T10:37:21.530Z,5.97
2023-04-20T10:40:08.589Z,9.00
2023-04-20T10:42:54.482Z,7.30
2023-04-20T10:45:42.438Z,9.00
2023-04-20T10:48:28.058Z,10.18
2023-04-20T10:51:13.830Z,7.55
2023-04-20T10:54:08.557Z,6.38
2023-04-20T10:56:54.614Z,9.88
2023-04-20T10:59:42.224Z,8.93
2023-04-20T11:02:28.611Z,10.32
2023-04-20T11:05:15.993Z,10.07
2023-04-20T11:08:02.074Z,9.25
2023-04-20T11:10:48.555Z,8.05
2023-04-20T11:13:34.764Z,6.18
2023-04-20T11:16:21.130Z,10.00
2023-04-20T11:19:07.482Z,8.52
2023-04-20T11:21:53.770Z,7.53
2023-04-20T11:24:41.498Z,8.50
2023-04-20T11:27:27.752Z,8.65
2023-04-20T11:30:14.492Z,6.78
2023-04-20T11:33:00.610Z,9.32
2023-04-20T11:35:46.809Z,8.70
2023-04-20T11:38:34.634Z,8.75
2023-04-20T11:41:20.543Z,7.10
2023-04-20T11:44:07.319Z,6.72
2023-04-20T11:46:54.910Z,8.50
2023-04-20T11:49:41.104Z,6.68
2023-04-20T11:52:27.428Z,5.60
2023-04-20T11:55:13.726Z,9.63
2023-04-20T11:58:00.008Z,7.95
2023-04-20T12:00:45.907Z,5.82
2023-04-20T12:03:32.823Z,4.63
2023-04-20T12:06:18.912Z,5.43
2023-04-20T12:09:06.613Z,5.38
2023-04-20T12:11:52.884Z,5.78
2023-04-20T12:14:39.164Z,6.13
2023-04-20T12:17:25.015Z,5.03
2023-04-20T12:20:12.643Z,5.47
2023-04-20T12:22:59.162Z,4.50
2023-04-20T12:25:45.259Z,4.03
2023-04-20T12:28:34.375Z,4.13
2023-04-20T12:31:20.171Z,5.35
2023-04-20T12:34:06.790Z,7.22
2023-04-20T12:36:53.693Z,5.90
2023-04-20T12:39:39.896Z,6.05
2023-04-20T12:42:25.453Z,2.70
2023-04-20T12:45:11.587Z,4.82
2023-04-20T12:48:00.346Z,3.90
2023-04-20T12:50:46.508Z,7.80
2023-04-20T12:53:32.165Z,8.52
2023-04-20T12:56:17.911Z,7.15
2023-04-20T12:59:04.272Z,6.60
2023-04-20T13:01:50.044Z,6.85
2023-04-20T13:04:36.406Z,4.45
2023-04-20T13:07:22.329Z,5.35
2023-04-20T13:10:08.735Z,6.32
2023-04-20T13:12:54.296Z,4.28
2023-04-20T13:15:40.954Z,6.95
2023-04-20T13:18:26.897Z,3.90
2023-04-20T13:21:13.522Z,5.65
2023-04-20T13:23:59.215Z,3.13
2023-04-20T13:26:45.730Z,3.47
2023-04-20T13:29:31.217Z,7.28
2023-04-20T13:32:17.116Z,7.35
2023-04-20T13:35:02.918Z,7.85
2023-04-20T13:37:48.499Z,5.32
2023-04-20T13:40:34.644Z,7.78
2023-04-20T13:43:21.796Z,5.20
2023-04-20T13:46:07.455Z,8.35
2023-04-20T13:48:53.225Z,8.55
2023-04-20T13:51:41.944Z,7.05
2023-04-20T13:54:28.248Z,8.35
2023-04-20T13:57:14.403Z,6.20
2023-04-20T14:00:01.592Z,5.18
2023-04-20T14:02:51.200Z,4.85
2023-04-20T14:05:38.873Z,7.03
2023-04-20T14:08:24.703Z,4.65
2023-04-20T14:11:10.866Z,3.17
2023-04-20T14:13:56.904Z,7.32
2023-04-20T14:16:44.662Z,6.93
2023-04-20T14:19:32.132Z,8.30
2023-04-20T14:22:17.923Z,8.18
2023-04-20T14:25:07.788Z,6.43
2023-04-20T14:27:53.990Z,7.40
2023-04-20T14:30:40.134Z,8.90
2023-04-20T14:33:26.145Z,4.22
2023-04-20T14:36:12.155Z,6.47
2023-04-20T14:38:58.305Z,5.47
2023-04-20T14:41:44.527Z,7.88
2023-04-20T14:44:30.452Z,5.88
2023-04-20T14:47:16.856Z,7.35
2023-04-20T14:50:03.168Z,8.23
2023-04-20T14:52:49.113Z,7.30
2023-04-20T14:55:34.869Z,7.15
2023-04-20T14:58:20.791Z,9.20
2023-04-20T15:01:06.812Z,7.00
2023-04-20T15:03:53.320Z,6.20
2023-04-20T15:06:39.075Z,6.63
2023-04-20T15:09:25.926Z,8.18
2023-04-20T15:12:11.720Z,7.00
2023-04-20T15:14:57.860Z,6.28
2023-04-20T15:17:45.480Z,6.55
2023-04-20T15:20:31.270Z,7.72
2023-04-20T15:23:17.407Z,6.68
2023-04-20T15:26:03.803Z,5.97
2023-04-20T15:28:49.965Z,6.75
2023-04-20T15:31:36.186Z,7.72
2023-04-20T15:34:22.003Z,7.57
2023-04-20T15:37:08.662Z,7.15
2023-04-20T15:39:55.996Z,8.15
2023-04-20T15:42:42.088Z,6.30
2023-04-20T15:45:30.092Z,8.77
2023-04-20T15:48:16.158Z,7.78
2023-04-20T15:51:02.949Z,8.98
2023-04-20T15:53:50.796Z,9.60
2023-04-20T15:56:37.116Z,6.65
2023-04-20T15:59:23.279Z,7.28
2023-04-20T16:02:09.780Z,6.03
2023-04-20T16:04:55.963Z,6.35
2023-04-20T16:07:42.428Z,3.65
2023-04-20T16:10:28.438Z,6.53
2023-04-20T16:13:14.560Z,6.20
2023-04-20T16:16:01.093Z,5.93
2023-04-20T16:18:47.106Z,2.67
2023-04-20T16:21:33.098Z,2.22
2023-04-20T16:24:20.038Z,7.43
2023-04-20T16:27:06.260Z,3.10
2023-04-20T16:29:52.485Z,5.55
2023-04-20T16:32:41.017Z,8.55
2023-04-20T16:35:27.636Z,6.00
2023-04-20T16:38:13.556Z,4.93
2023-04-20T16:40:59.938Z,4.15
2023-04-20T16:43:46.808Z,4.15
2023-04-20T16:46:34.754Z,3.67
2023-04-20T16:49:21.168Z,2.80
2023-04-20T16:52:08.840Z,2.20
2023-04-20T16:54:54.765Z,0.85
2023-04-20T16:57:42.384Z,3.33
2023-04-20T17:00:32.949Z,3.03
2023-04-20T17:03:19.090Z,3.20
2023-04-20T17:06:08.262Z,2.50
2023-04-20T17:08:57.617Z,1.30
2023-04-20T17:11:43.875Z,1.48
2023-04-20T17:14:32.382Z,3.60
2023-04-20T17:17:18.581Z,2.30
2023-04-20T17:20:08.196Z,0.77
2023-04-20T17:22:54.189Z,2.38
2023-04-20T17:25:40.186Z,1.80
2023-04-20T17:28:26.436Z,2.53
2023-04-20T17:31:12.349Z,1.55
2023-04-20T17:33:58.067Z,2.60
2023-04-20T17:36:43.737Z,1.80
2023-04-20T17:39:29.774Z,2.63
2023-04-20T17:42:17.051Z,1.70
2023-04-20T17:45:03.728Z,2.60
2023-04-20T17:47:50.223Z,3.70
2023-04-20T17:50:36.859Z,2.17
2023-04-20T17:53:23.244Z,3.22
2023-04-20T17:56:10.977Z,2.63
2023-04-20T17:58:58.334Z,2.30
2023-04-20T18:01:44.707Z,3.47
2023-04-20T18:04:31.288Z,3.30
2023-04-20T18:07:18.640Z,4.35
2023-04-20T18:10:05.338Z,3.70
2023-04-20T18:12:51.431Z,3.42
2023-04-20T18:15:37.747Z,2.45
2023-04-20T18:18:24.111Z,1.98
2023-04-20T18:21:12.124Z,2.92
2023-04-20T18:23:57.978Z,4.85
2023-04-20T18:26:44.299Z,4.20
2023-04-20T18:29:30.309Z,3.17
2023-04-20T18:32:18.144Z,3.65
2023-04-20T18:35:06.015Z,5.43
2023-04-20T18:37:52.067Z,5.22
2023-04-20T18:40:38.278Z,4.65
2023-04-20T18:43:24.957Z,3.33
2023-04-20T18:46:10.884Z,3.75
2023-04-20T18:48:58.685Z,2.40
2023-04-20T18:51:44.610Z,2.63
2023-04-20T18:54:30.324Z,3.80
2023-04-20T18:57:16.447Z,7.53
2023-04-20T19:00:03.348Z,4.70
2023-04-20T19:02:49.617Z,8.38
2023-04-20T19:05:35.920Z,5.30
2023-04-20T19:08:23.253Z,4.32
2023-04-20T19:11:09.289Z,4.28
2023-04-20T19:13:55.388Z,6.88
2023-04-20T19:16:41.346Z,4.50
2023-04-20T19:19:27.279Z,2.92
2023-04-20T19:22:13.329Z,2.53
2023-04-20T19:24:59.535Z,2.15
2023-04-20T19:27:45.246Z,7.18
2023-04-20T19:30:31.573Z,4.82
2023-04-20T19:33:17.617Z,5.05
2023-04-20T19:36:06.406Z,5.60
2023-04-20T19:38:52.856Z,4.03
2023-04-20T19:41:38.945Z,2.53
2023-04-20T19:44:25.018Z,1.23
2023-04-20T19:47:11.107Z,3.95
2023-04-20T19:49:57.633Z,7.35
2023-04-20T19:52:43.729Z,4.30
2023-04-20T19:55:29.761Z,6.93
2023-04-20T19:58:16.351Z,7.40
2023-04-20T20:01:02.834Z,4.75
2023-04-20T20:03:49.146Z,9.55
2023-04-20T20:06:35.395Z,6.95
2023-04-20T20:09:24.003Z,7.95
2023-04-20T20:12:11.242Z,6.93
2023-04-20T20:14:57.769Z,9.23
2023-04-20T20:17:45.333Z,10.10
2023-04-20T20:20:32.617Z,8.73
2023-04-20T20:23:18.998Z,9.07
2023-04-20T20:26:05.397Z,10.10
2023-04-20T20:28:54.113Z,9.85
2023-04-20T20:31:40.834Z,6.07
2023-04-20T20:34:26.863Z,11.43
2023-04-20T20:37:13.926Z,13.55
2023-04-20T20:40:00.236Z,9.18
2023-04-20T20:42:47.016Z,10.20
2023-04-20T20:45:33.305Z,10.63
2023-04-20T20:48:20.579Z,12.77
2023-04-20T20:51:06.659Z,10.18
2023-04-20T20:53:53.139Z,10.93
2023-04-20T20:56:39.532Z,14.27
2023-04-20T20:59:25.816Z,18.52
2023-04-20T21:05:25.998Z,9.00
2023-04-20T21:08:11.593Z,14.25
2023-04-20T21:10:57.977Z,15.07
2023-04-20T21:13:44.029Z,14.32
2023-04-20T21:16:30.050Z,11.02
2023-04-20T21:19:16.229Z,12.95
2023-04-20T21:22:02.263Z,13.98
2023-04-20T21:24:48.068Z,13.82
2023-04-20T21:27:33.847Z,9.20
2023-04-20T21:30:20.007Z,12.57
2023-04-20T21:33:06.078Z,14.05
2023-04-20T21:35:52.036Z,17.23
2023-04-20T21:38:37.657Z,13.25
2023-04-20T21:41:23.922Z,9.98
2023-04-20T21:44:09.204Z,12.02
2023-04-20T21:46:54.936Z,12.38
2023-04-20T21:49:40.957Z,12.35
2023-04-20T21:52:27.127Z,12.40
2023-04-20T21:55:13.215Z,14.30
2023-04-20T21:57:59.045Z,12.82
2023-04-20T22:00:44.976Z,10.88
2023-04-20T22:03:31.649Z,12.35
2023-04-20T22:06:17.792Z,8.77
2023-04-20T22:09:04.696Z,12.45
2023-04-20T22:11:51.230Z,11.23
2023-04-20T22:14:37.721Z,11.43
2023-04-20T22:17:24.058Z,12.95
2023-04-20T22:20:11.184Z,10.10
2023-04-20T22:22:57.717Z,9.80
2023-04-20T22:25:43.508Z,11.55
2023-04-20T22:28:29.517Z,7.82
2023-04-20T22:31:15.617Z,10.63
2023-04-20T22:34:01.137Z,10.70
2023-04-20T22:36:47.184Z,11.05
2023-04-20T22:39:33.354Z,12.15
2023-04-20T22:42:18.809Z,12.93
2023-04-20T22:45:05.390Z,4.65
2023-04-20T22:47:51.207Z,10.43
2023-04-20T22:50:37.501Z,7.45
2023-04-20T22:53:23.728Z,6.72
2023-04-20T22:56:09.768Z,11.30
2023-04-20T22:58:56.427Z,5.85
2023-04-20T23:01:42.452Z,7.28
2023-04-20T23:04:28.581Z,8.93
2023-04-20T23:07:14.660Z,8.60
2023-04-20T23:10:01.571Z,6.43
2023-04-20T23:12:47.693Z,11.07
2023-04-20T23:15:33.226Z,6.20
2023-04-20T23:18:18.756Z,11.43
2023-04-20T23:21:05.799Z,9.40
2023-04-20T23:23:53.044Z,10.93
2023-04-20T23:26:38.857Z,11.65
2023-04-20T23:29:24.926Z,12.23
2023-04-20T23:32:10.699Z,9.95
2023-04-20T23:34:56.429Z,10.27
2023-04-20T23:37:42.128Z,8.52
2023-04-20T23:40:27.504Z,8.68
2023-04-20T23:43:13.830Z,8.63
2023-04-20T23:46:00.476Z,8.80
2023-04-20T23:48:46.477Z,8.02
2023-04-20T23:51:32.608Z,8.45
2023-04-20T23:54:18.215Z,9.88
2023-04-20T23:57:03.971Z,12.23
2023-04-20T23:59:50.131Z,11.93
